sensor_id;sensor_type;location;lat;lon;timestamp;temperature;humidity
30702;DHT22;17451;49.908;7.980;2022-09-16T00:00:45;17.20;99.90
30702;DHT22;17451;49.908;7.980;2022-09-16T00:03:11;17.20;99.90
30702;DHT22;17451;49.908;7.980;2022-09-16T00:05:41;17.20;99.90
30702;DHT22;17451;49.908;7.980;2022-09-16T00:08:07;17.20;99.90
30702;DHT22;17451;49.908;7.980;2022-09-16T00:10:33;17.20;99.90
30702;DHT22;17451;49.908;7.980;2022-09-16T00:13:01;17.30;99.90
30702;DHT22;17451;49.908;7.980;2022-09-16T00:15:30;17.30;99.90
30702;DHT22;17451;49.908;7.980;2022-09-16T00:17:55;17.20;99.90
30702;DHT22;17451;49.908;7.980;2022-09-16T00:20:24;17.20;99.90
30702;DHT22;17451;49.908;7.980;2022-09-16T00:22:52;17.20;99.90
30702;DHT22;17451;49.908;7.980;2022-09-16T00:25:18;17.30;99.90
30702;DHT22;17451;49.908;7.980;2022-09-16T00:27:46;17.30;99.90
30702;DHT22;17451;49.908;7.980;2022-09-16T00:30:12;17.30;99.90
30702;DHT22;17451;49.908;7.980;2022-09-16T00:32:40;17.10;99.90
30702;DHT22;17451;49.908;7.980;2022-09-16T00:35:11;17.00;99.90
30702;DHT22;17451;49.908;7.980;2022-09-16T00:37:40;17.10;99.90
30702;DHT22;17451;49.908;7.980;2022-09-16T00:40:20;17.00;99.90
30702;DHT22;17451;49.908;7.980;2022-09-16T00:43:08;16.90;99.90
30702;DHT22;17451;49.908;7.980;2022-09-16T00:45:36;17.00;99.90
30702;DHT22;17451;49.908;7.980;2022-09-16T00:48:04;17.00;99.90
30702;DHT22;17451;49.908;7.980;2022-09-16T00:50:38;17.00;99.90
30702;DHT22;17451;49.908;7.980;2022-09-16T00:53:10;17.00;99.90
30702;DHT22;17451;49.908;7.980;2022-09-16T01:00:45;16.90;99.90
30702;DHT22;17451;49.908;7.980;2022-09-16T01:03:11;17.00;99.90
30702;DHT22;17451;49.908;7.980;2022-09-16T01:05:36;17.00;99.90
30702;DHT22;17451;49.908;7.980;2022-09-16T01:08:03;17.00;99.90
30702;DHT22;17451;49.908;7.980;2022-09-16T01:10:29;17.00;99.90
30702;DHT22;17451;49.908;7.980;2022-09-16T01:12:57;17.00;99.90
30702;DHT22;17451;49.908;7.980;2022-09-16T01:15:25;16.90;99.90
30702;DHT22;17451;49.908;7.980;2022-09-16T01:17:58;17.00;99.90
30702;DHT22;17451;49.908;7.980;2022-09-16T01:20:40;17.00;99.90
30702;DHT22;17451;49.908;7.980;2022-09-16T01:36:32;17.00;99.90
30702;DHT22;17451;49.908;7.980;2022-09-16T01:44:06;16.90;99.90
30702;DHT22;17451;49.908;7.980;2022-09-16T01:49:14;16.90;99.90
30702;DHT22;17451;49.908;7.980;2022-09-16T01:51:56;16.90;99.90
30702;DHT22;17451;49.908;7.980;2022-09-16T01:54:38;16.90;99.90
30702;DHT22;17451;49.908;7.980;2022-09-16T01:57:20;16.90;99.90
30702;DHT22;17451;49.908;7.980;2022-09-16T01:59:56;16.90;99.90
30702;DHT22;17451;49.908;7.980;2022-09-16T02:05:54;16.80;99.90
30702;DHT22;17451;49.908;7.980;2022-09-16T02:08:11;16.80;99.90
30702;DHT22;17451;49.908;7.980;2022-09-16T02:11:00;16.80;99.90
30702;DHT22;17451;49.908;7.980;2022-09-16T02:13:26;16.80;99.90
30702;DHT22;17451;49.908;7.980;2022-09-16T02:15:57;16.80;99.90
30702;DHT22;17451;49.908;7.980;2022-09-16T02:18:26;16.80;99.90
30702;DHT22;17451;49.908;7.980;2022-09-16T02:20:53;16.80;99.90
30702;DHT22;17451;49.908;7.980;2022-09-16T02:23:22;16.80;99.90
30702;DHT22;17451;49.908;7.980;2022-09-16T02:25:53;16.80;99.90
30702;DHT22;17451;49.908;7.980;2022-09-16T02:28:28;16.80;99.90
30702;DHT22;17451;49.908;7.980;2022-09-16T02:30:56;16.80;99.90
30702;DHT22;17451;49.908;7.980;2022-09-16T02:33:31;16.80;99.90
30702;DHT22;17451;49.908;7.980;2022-09-16T02:35:58;16.80;99.90
30702;DHT22;17451;49.908;7.980;2022-09-16T02:38:29;16.80;99.90
30702;DHT22;17451;49.908;7.980;2022-09-16T02:40:56;16.80;99.90
30702;DHT22;17451;49.908;7.980;2022-09-16T02:43:31;16.80;99.90
30702;DHT22;17451;49.908;7.980;2022-09-16T02:45:58;16.70;99.90
30702;DHT22;17451;49.908;7.980;2022-09-16T02:48:36;16.60;99.90
30702;DHT22;17451;49.908;7.980;2022-09-16T02:53:51;16.60;99.90
30702;DHT22;17451;49.908;7.980;2022-09-16T02:58:44;16.60;99.90
30702;DHT22;17451;49.908;7.980;2022-09-16T03:01:11;16.60;99.90
30702;DHT22;17451;49.908;7.980;2022-09-16T03:03:38;16.60;99.90
30702;DHT22;17451;49.908;7.980;2022-09-16T03:09:08;16.50;99.90
30702;DHT22;17451;49.908;7.980;2022-09-16T03:19:30;16.20;99.90
30702;DHT22;17451;49.908;7.980;2022-09-16T03:22:17;16.20;99.90
30702;DHT22;17451;49.908;7.980;2022-09-16T03:24:52;16.20;99.90
30702;DHT22;17451;49.908;7.980;2022-09-16T03:27:22;16.10;99.90
30702;DHT22;17451;49.908;7.980;2022-09-16T03:30:09;16.10;99.90
30702;DHT22;17451;49.908;7.980;2022-09-16T03:32:46;15.90;99.90
30702;DHT22;17451;49.908;7.980;2022-09-16T03:35:16;15.90;99.90
30702;DHT22;17451;49.908;7.980;2022-09-16T03:37:44;15.90;99.90
30702;DHT22;17451;49.908;7.980;2022-09-16T03:40:12;15.80;99.90
30702;DHT22;17451;49.908;7.980;2022-09-16T03:42:39;15.90;99.90
30702;DHT22;17451;49.908;7.980;2022-09-16T03:45:18;15.90;99.90
30702;DHT22;17451;49.908;7.980;2022-09-16T03:47:44;15.80;99.90
30702;DHT22;17451;49.908;7.980;2022-09-16T03:50:10;15.80;99.90
30702;DHT22;17451;49.908;7.980;2022-09-16T03:52:36;15.70;99.90
30702;DHT22;17451;49.908;7.980;2022-09-16T03:55:02;15.70;99.90
30702;DHT22;17451;49.908;7.980;2022-09-16T03:57:30;15.60;99.90
30702;DHT22;17451;49.908;7.980;2022-09-16T03:59:56;15.60;99.90
30702;DHT22;17451;49.908;7.980;2022-09-16T04:02:26;15.60;99.90
30702;DHT22;17451;49.908;7.980;2022-09-16T04:04:51;15.60;99.90
30702;DHT22;17451;49.908;7.980;2022-09-16T04:07:17;15.60;99.90
30702;DHT22;17451;49.908;7.980;2022-09-16T04:09:49;15.60;99.90
30702;DHT22;17451;49.908;7.980;2022-09-16T04:12:15;15.60;99.90
30702;DHT22;17451;49.908;7.980;2022-09-16T04:14:41;15.60;99.90
30702;DHT22;17451;49.908;7.980;2022-09-16T04:17:09;15.60;99.90
30702;DHT22;17451;49.908;7.980;2022-09-16T04:19:37;15.70;99.90
30702;DHT22;17451;49.908;7.980;2022-09-16T04:22:02;15.60;99.90
30702;DHT22;17451;49.908;7.980;2022-09-16T04:24:28;15.60;99.90
30702;DHT22;17451;49.908;7.980;2022-09-16T04:26:54;15.60;99.90
30702;DHT22;17451;49.908;7.980;2022-09-16T04:29:20;15.70;99.90
30702;DHT22;17451;49.908;7.980;2022-09-16T04:31:45;15.60;99.90
30702;DHT22;17451;49.908;7.980;2022-09-16T04:34:11;15.60;99.90
30702;DHT22;17451;49.908;7.980;2022-09-16T04:36:43;15.60;99.90
30702;DHT22;17451;49.908;7.980;2022-09-16T04:39:09;15.50;99.90
30702;DHT22;17451;49.908;7.980;2022-09-16T04:44:58;15.50;99.90
30702;DHT22;17451;49.908;7.980;2022-09-16T04:47:24;15.50;99.90
30702;DHT22;17451;49.908;7.980;2022-09-16T04:50:02;15.40;99.90
30702;DHT22;17451;49.908;7.980;2022-09-16T04:52:48;15.50;99.90
30702;DHT22;17451;49.908;7.980;2022-09-16T04:55:18;15.50;99.90
30702;DHT22;17451;49.908;7.980;2022-09-16T04:57:57;15.40;99.90
30702;DHT22;17451;49.908;7.980;2022-09-16T05:00:32;15.40;99.90
30702;DHT22;17451;49.908;7.980;2022-09-16T05:02:58;15.50;99.90
30702;DHT22;17451;49.908;7.980;2022-09-16T05:05:26;15.40;99.90
30702;DHT22;17451;49.908;7.980;2022-09-16T05:07:59;15.50;99.90
30702;DHT22;17451;49.908;7.980;2022-09-16T05:10:40;15.40;99.90
30702;DHT22;17451;49.908;7.980;2022-09-16T05:13:11;15.40;99.90
30702;DHT22;17451;49.908;7.980;2022-09-16T05:15:43;15.40;99.90
30702;DHT22;17451;49.908;7.980;2022-09-16T05:21:23;15.40;99.90
30702;DHT22;17451;49.908;7.980;2022-09-16T05:24:04;15.40;99.90
30702;DHT22;17451;49.908;7.980;2022-09-16T05:26:33;15.50;99.90
30702;DHT22;17451;49.908;7.980;2022-09-16T05:29:04;15.50;99.90
30702;DHT22;17451;49.908;7.980;2022-09-16T05:31:34;15.40;99.90
30702;DHT22;17451;49.908;7.980;2022-09-16T05:34:11;15.40;99.90
30702;DHT22;17451;49.908;7.980;2022-09-16T05:36:47;15.50;99.90
30702;DHT22;17451;49.908;7.980;2022-09-16T05:39:15;15.40;99.90
30702;DHT22;17451;49.908;7.980;2022-09-16T05:41:44;15.40;99.90
30702;DHT22;17451;49.908;7.980;2022-09-16T05:44:12;15.40;99.90
30702;DHT22;17451;49.908;7.980;2022-09-16T05:46:41;15.50;99.90
30702;DHT22;17451;49.908;7.980;2022-09-16T05:49:08;15.60;99.90
30702;DHT22;17451;49.908;7.980;2022-09-16T05:51:39;15.50;99.90
30702;DHT22;17451;49.908;7.980;2022-09-16T05:54:17;15.60;99.90
30702;DHT22;17451;49.908;7.980;2022-09-16T06:03:11;15.50;99.90
30702;DHT22;17451;49.908;7.980;2022-09-16T06:05:40;15.60;99.90
30702;DHT22;17451;49.908;7.980;2022-09-16T06:08:05;15.60;99.90
30702;DHT22;17451;49.908;7.980;2022-09-16T06:10:35;15.60;99.90
30702;DHT22;17451;49.908;7.980;2022-09-16T06:19:17;15.80;99.90
30702;DHT22;17451;49.908;7.980;2022-09-16T06:21:46;15.80;99.90
30702;DHT22;17451;49.908;7.980;2022-09-16T06:24:40;15.80;99.90
30702;DHT22;17451;49.908;7.980;2022-09-16T06:27:08;15.80;99.90
30702;DHT22;17451;49.908;7.980;2022-09-16T06:29:34;15.90;99.90
30702;DHT22;17451;49.908;7.980;2022-09-16T06:32:00;16.00;99.90
30702;DHT22;17451;49.908;7.980;2022-09-16T06:34:26;16.10;99.90
30702;DHT22;17451;49.908;7.980;2022-09-16T06:36:51;16.20;99.90
30702;DHT22;17451;49.908;7.980;2022-09-16T06:39:19;16.30;99.90
30702;DHT22;17451;49.908;7.980;2022-09-16T06:41:47;16.40;99.90
30702;DHT22;17451;49.908;7.980;2022-09-16T06:44:16;16.50;99.90
30702;DHT22;17451;49.908;7.980;2022-09-16T06:46:47;16.50;99.90
30702;DHT22;17451;49.908;7.980;2022-09-16T06:49:25;16.50;99.90
30702;DHT22;17451;49.908;7.980;2022-09-16T06:51:51;16.50;99.90
30702;DHT22;17451;49.908;7.980;2022-09-16T06:54:17;16.50;99.90
30702;DHT22;17451;49.908;7.980;2022-09-16T06:59:45;16.60;99.90
30702;DHT22;17451;49.908;7.980;2022-09-16T07:05:02;16.70;99.90
30702;DHT22;17451;49.908;7.980;2022-09-16T07:07:39;16.70;99.90
30702;DHT22;17451;49.908;7.980;2022-09-16T07:10:09;16.70;99.90
30702;DHT22;17451;49.908;7.980;2022-09-16T07:16:05;16.90;99.90
30702;DHT22;17451;49.908;7.980;2022-09-16T07:18:43;17.10;99.90
30702;DHT22;17451;49.908;7.980;2022-09-16T07:21:35;17.20;99.90
30702;DHT22;17451;49.908;7.980;2022-09-16T07:24:10;17.30;99.90
30702;DHT22;17451;49.908;7.980;2022-09-16T07:26:43;17.30;99.90
30702;DHT22;17451;49.908;7.980;2022-09-16T07:32:20;17.50;99.90
30702;DHT22;17451;49.908;7.980;2022-09-16T07:35:32;17.40;99.90
30702;DHT22;17451;49.908;7.980;2022-09-16T07:40:36;17.50;99.90
30702;DHT22;17451;49.908;7.980;2022-09-16T07:43:05;17.60;99.90
30702;DHT22;17451;49.908;7.980;2022-09-16T07:45:30;17.60;99.90
30702;DHT22;17451;49.908;7.980;2022-09-16T07:47:56;17.60;99.90
30702;DHT22;17451;49.908;7.980;2022-09-16T07:50:22;17.60;99.90
30702;DHT22;17451;49.908;7.980;2022-09-16T07:52:54;17.60;99.90
30702;DHT22;17451;49.908;7.980;2022-09-16T07:55:19;17.70;99.90
30702;DHT22;17451;49.908;7.980;2022-09-16T07:57:48;17.90;99.90
30702;DHT22;17451;49.908;7.980;2022-09-16T08:00:16;18.00;99.90
30702;DHT22;17451;49.908;7.980;2022-09-16T08:02:45;18.10;99.90
30702;DHT22;17451;49.908;7.980;2022-09-16T08:05:11;18.20;99.90
30702;DHT22;17451;49.908;7.980;2022-09-16T08:07:37;18.30;99.90
30702;DHT22;17451;49.908;7.980;2022-09-16T08:10:19;18.40;99.90
30702;DHT22;17451;49.908;7.980;2022-09-16T08:13:14;18.70;99.90
30702;DHT22;17451;49.908;7.980;2022-09-16T08:15:40;18.90;99.90
30702;DHT22;17451;49.908;7.980;2022-09-16T08:18:06;19.20;99.90
30702;DHT22;17451;49.908;7.980;2022-09-16T08:20:31;19.20;99.90
30702;DHT22;17451;49.908;7.980;2022-09-16T08:22:57;19.40;99.90
30702;DHT22;17451;49.908;7.980;2022-09-16T08:25:23;19.30;99.90
30702;DHT22;17451;49.908;7.980;2022-09-16T08:27:58;19.20;99.90
30702;DHT22;17451;49.908;7.980;2022-09-16T08:30:24;19.20;99.90
30702;DHT22;17451;49.908;7.980;2022-09-16T08:32:57;19.10;99.90
30702;DHT22;17451;49.908;7.980;2022-09-16T08:35:25;19.20;99.90
30702;DHT22;17451;49.908;7.980;2022-09-16T08:37:55;19.30;99.90
30702;DHT22;17451;49.908;7.980;2022-09-16T08:40:34;19.50;99.90
30702;DHT22;17451;49.908;7.980;2022-09-16T08:49:26;20.00;99.90
30702;DHT22;17451;49.908;7.980;2022-09-16T08:52:02;20.10;99.90
30702;DHT22;17451;49.908;7.980;2022-09-16T08:54:41;19.80;99.90
30702;DHT22;17451;49.908;7.980;2022-09-16T08:57:15;19.50;99.90
30702;DHT22;17451;49.908;7.980;2022-09-16T08:59:47;19.40;99.90
30702;DHT22;17451;49.908;7.980;2022-09-16T09:07:55;20.40;99.90
30702;DHT22;17451;49.908;7.980;2022-09-16T09:11:24;20.70;99.90
30702;DHT22;17451;49.908;7.980;2022-09-16T09:16:37;20.70;99.90
30702;DHT22;17451;49.908;7.980;2022-09-16T09:30:29;20.70;99.90
30702;DHT22;17451;49.908;7.980;2022-09-16T09:39:16;21.90;99.90
30702;DHT22;17451;49.908;7.980;2022-09-16T09:42:26;22.30;99.90
30702;DHT22;17451;49.908;7.980;2022-09-16T10:13:20;21.90;99.90
30702;DHT22;17451;49.908;7.980;2022-09-16T10:27:25;20.90;99.90
30702;DHT22;17451;49.908;7.980;2022-09-16T10:32:29;21.10;99.90
30702;DHT22;17451;49.908;7.980;2022-09-16T10:34:55;21.70;99.90
30702;DHT22;17451;49.908;7.980;2022-09-16T10:37:21;22.10;99.90
30702;DHT22;17451;49.908;7.980;2022-09-16T10:39:53;22.50;99.90
30702;DHT22;17451;49.908;7.980;2022-09-16T10:42:23;23.00;98.30
30702;DHT22;17451;49.908;7.980;2022-09-16T10:44:50;23.30;98.00
30702;DHT22;17451;49.908;7.980;2022-09-16T10:47:19;23.30;97.50
30702;DHT22;17451;49.908;7.980;2022-09-16T10:49:53;23.20;97.70
30702;DHT22;17451;49.908;7.980;2022-09-16T10:52:20;23.30;98.20
30702;DHT22;17451;49.908;7.980;2022-09-16T10:54:46;23.70;97.60
30702;DHT22;17451;49.908;7.980;2022-09-16T11:03:18;23.30;97.60
30702;DHT22;17451;49.908;7.980;2022-09-16T11:10:32;21.10;99.90
30702;DHT22;17451;49.908;7.980;2022-09-16T11:15:36;20.20;99.90
30702;DHT22;17451;49.908;7.980;2022-09-16T11:18:30;19.80;99.90
30702;DHT22;17451;49.908;7.980;2022-09-16T11:24:29;19.80;99.90
30702;DHT22;17451;49.908;7.980;2022-09-16T11:35:43;27.50;93.10
30702;DHT22;17451;49.908;7.980;2022-09-16T11:44:07;33.50;67.50
30702;DHT22;17451;49.908;7.980;2022-09-16T12:09:10;23.70;99.90
30702;DHT22;17451;49.908;7.980;2022-09-16T12:11:48;25.80;97.70
30702;DHT22;17451;49.908;7.980;2022-09-16T12:14:21;28.00;92.30
30702;DHT22;17451;49.908;7.980;2022-09-16T12:16:58;28.20;92.30
30702;DHT22;17451;49.908;7.980;2022-09-16T12:19:28;27.60;93.00
30702;DHT22;17451;49.908;7.980;2022-09-16T12:26:59;25.00;96.40
30702;DHT22;17451;49.908;7.980;2022-09-16T12:29:45;24.20;98.20
30702;DHT22;17451;49.908;7.980;2022-09-16T12:32:16;23.40;98.70
30702;DHT22;17451;49.908;7.980;2022-09-16T12:34:44;22.60;99.90
30702;DHT22;17451;49.908;7.980;2022-09-16T12:40:17;21.50;99.90
30702;DHT22;17451;49.908;7.980;2022-09-16T12:45:31;19.80;99.90
30702;DHT22;17451;49.908;7.980;2022-09-16T12:50:51;18.20;99.90
30702;DHT22;17451;49.908;7.980;2022-09-16T12:59:05;17.20;99.90
30702;DHT22;17451;49.908;7.980;2022-09-16T13:01:42;17.10;99.90
30702;DHT22;17451;49.908;7.980;2022-09-16T13:04:13;16.90;99.90
30702;DHT22;17451;49.908;7.980;2022-09-16T13:06:43;17.00;99.90
30702;DHT22;17451;49.908;7.980;2022-09-16T13:12:36;17.30;99.90
30702;DHT22;17451;49.908;7.980;2022-09-16T13:14:43;18.10;99.90
30702;DHT22;17451;49.908;7.980;2022-09-16T13:17:10;20.80;99.90
30702;DHT22;17451;49.908;7.980;2022-09-16T13:24:53;22.10;99.90
30702;DHT22;17451;49.908;7.980;2022-09-16T13:29:51;26.10;99.90
30702;DHT22;17451;49.908;7.980;2022-09-16T13:37:56;27.90;97.10
30702;DHT22;17451;49.908;7.980;2022-09-16T13:40:27;27.80;98.20
30702;DHT22;17451;49.908;7.980;2022-09-16T13:43:53;28.10;95.00
30702;DHT22;17451;49.908;7.980;2022-09-16T13:45:48;28.20;94.80
30702;DHT22;17451;49.908;7.980;2022-09-16T13:50:44;26.60;96.50
30702;DHT22;17451;49.908;7.980;2022-09-16T13:53:17;25.50;99.20
30702;DHT22;17451;49.908;7.980;2022-09-16T13:55:45;24.50;99.90
30702;DHT22;17451;49.908;7.980;2022-09-16T14:00:43;22.30;99.90
30702;DHT22;17451;49.908;7.980;2022-09-16T14:10:55;19.70;99.90
30702;DHT22;17451;49.908;7.980;2022-09-16T14:13:23;19.40;99.90
30702;DHT22;17451;49.908;7.980;2022-09-16T14:15:53;19.20;99.90
30702;DHT22;17451;49.908;7.980;2022-09-16T14:18:25;19.00;99.90
30702;DHT22;17451;49.908;7.980;2022-09-16T14:21:03;18.70;99.90
30702;DHT22;17451;49.908;7.980;2022-09-16T14:23:30;18.60;99.90
30702;DHT22;17451;49.908;7.980;2022-09-16T14:25:57;18.40;99.90
30702;DHT22;17451;49.908;7.980;2022-09-16T14:28:33;18.30;99.90
30702;DHT22;17451;49.908;7.980;2022-09-16T14:30:59;18.20;99.90
30702;DHT22;17451;49.908;7.980;2022-09-16T14:33:31;18.20;99.90
30702;DHT22;17451;49.908;7.980;2022-09-16T14:35:58;18.10;99.90
30702;DHT22;17451;49.908;7.980;2022-09-16T14:38:35;18.00;99.90
30702;DHT22;17451;49.908;7.980;2022-09-16T14:41:06;17.90;99.90
30702;DHT22;17451;49.908;7.980;2022-09-16T14:43:38;17.80;99.90
30702;DHT22;17451;49.908;7.980;2022-09-16T14:46:04;17.70;99.90
30702;DHT22;17451;49.908;7.980;2022-09-16T14:48:33;17.80;99.90
30702;DHT22;17451;49.908;7.980;2022-09-16T14:51:00;17.90;99.90
30702;DHT22;17451;49.908;7.980;2022-09-16T14:53:30;18.10;99.90
30702;DHT22;17451;49.908;7.980;2022-09-16T14:55:57;18.10;99.90
30702;DHT22;17451;49.908;7.980;2022-09-16T14:58:25;18.30;99.90
30702;DHT22;17451;49.908;7.980;2022-09-16T15:00:53;18.30;99.90
30702;DHT22;17451;49.908;7.980;2022-09-16T15:03:25;18.40;99.90
30702;DHT22;17451;49.908;7.980;2022-09-16T15:05:51;18.50;99.90
30702;DHT22;17451;49.908;7.980;2022-09-16T15:08:20;18.50;99.90
30702;DHT22;17451;49.908;7.980;2022-09-16T15:10:48;18.50;99.90
30702;DHT22;17451;49.908;7.980;2022-09-16T15:13:15;18.50;99.90
30702;DHT22;17451;49.908;7.980;2022-09-16T15:15:44;18.20;99.90
30702;DHT22;17451;49.908;7.980;2022-09-16T15:18:13;18.20;99.90
30702;DHT22;17451;49.908;7.980;2022-09-16T15:20:47;17.80;99.90
30702;DHT22;17451;49.908;7.980;2022-09-16T15:23:17;17.60;99.90
30702;DHT22;17451;49.908;7.980;2022-09-16T15:25:50;17.40;99.90
30702;DHT22;17451;49.908;7.980;2022-09-16T15:28:16;17.00;99.90
30702;DHT22;17451;49.908;7.980;2022-09-16T15:30:49;16.90;99.90
30702;DHT22;17451;49.908;7.980;2022-09-16T15:36:01;16.70;99.90
30702;DHT22;17451;49.908;7.980;2022-09-16T15:38:27;16.60;99.90
30702;DHT22;17451;49.908;7.980;2022-09-16T15:41:00;16.50;99.90
30702;DHT22;17451;49.908;7.980;2022-09-16T15:43:27;16.40;99.90
30702;DHT22;17451;49.908;7.980;2022-09-16T15:45:57;16.30;99.90
30702;DHT22;17451;49.908;7.980;2022-09-16T15:48:23;16.30;99.90
30702;DHT22;17451;49.908;7.980;2022-09-16T15:50:56;16.20;99.90
30702;DHT22;17451;49.908;7.980;2022-09-16T16:14:45;16.10;99.90
30702;DHT22;17451;49.908;7.980;2022-09-16T16:17:45;16.10;99.90
30702;DHT22;17451;49.908;7.980;2022-09-16T16:25:29;16.10;99.90
30702;DHT22;17451;49.908;7.980;2022-09-16T16:28:22;16.10;99.90
30702;DHT22;17451;49.908;7.980;2022-09-16T16:31:10;16.10;99.90
30702;DHT22;17451;49.908;7.980;2022-09-16T16:36:45;16.10;99.90
30702;DHT22;17451;49.908;7.980;2022-09-16T16:39:30;16.10;99.90
30702;DHT22;17451;49.908;7.980;2022-09-16T16:42:01;16.10;99.90
30702;DHT22;17451;49.908;7.980;2022-09-16T16:44:30;16.00;99.90
30702;DHT22;17451;49.908;7.980;2022-09-16T16:47:02;15.80;99.90
30702;DHT22;17451;49.908;7.980;2022-09-16T16:49:27;15.60;99.90
30702;DHT22;17451;49.908;7.980;2022-09-16T16:51:56;15.50;99.90
30702;DHT22;17451;49.908;7.980;2022-09-16T16:54:37;15.40;99.90
30702;DHT22;17451;49.908;7.980;2022-09-16T16:57:03;15.40;99.90
30702;DHT22;17451;49.908;7.980;2022-09-16T16:59:29;15.40;99.90
30702;DHT22;17451;49.908;7.980;2022-09-16T17:01:55;15.30;99.90
30702;DHT22;17451;49.908;7.980;2022-09-16T17:04:21;15.30;99.90
30702;DHT22;17451;49.908;7.980;2022-09-16T17:06:47;15.20;99.90
30702;DHT22;17451;49.908;7.980;2022-09-16T17:09:13;15.20;99.90
30702;DHT22;17451;49.908;7.980;2022-09-16T17:11:52;15.30;99.90
30702;DHT22;17451;49.908;7.980;2022-09-16T17:14:18;15.30;99.90
30702;DHT22;17451;49.908;7.980;2022-09-16T17:16:44;15.30;99.90
30702;DHT22;17451;49.908;7.980;2022-09-16T17:19:11;15.30;99.90
30702;DHT22;17451;49.908;7.980;2022-09-16T17:21:37;15.30;99.90
30702;DHT22;17451;49.908;7.980;2022-09-16T17:24:04;15.20;99.90
30702;DHT22;17451;49.908;7.980;2022-09-16T17:26:30;15.20;99.90
30702;DHT22;17451;49.908;7.980;2022-09-16T17:28:56;15.20;99.90
30702;DHT22;17451;49.908;7.980;2022-09-16T17:31:23;15.10;99.90
30702;DHT22;17451;49.908;7.980;2022-09-16T17:33:53;15.10;99.90
30702;DHT22;17451;49.908;7.980;2022-09-16T17:36:20;15.10;99.90
30702;DHT22;17451;49.908;7.980;2022-09-16T17:38:48;15.10;99.90
30702;DHT22;17451;49.908;7.980;2022-09-16T17:41:15;15.10;99.90
30702;DHT22;17451;49.908;7.980;2022-09-16T17:43:42;15.00;99.90
30702;DHT22;17451;49.908;7.980;2022-09-16T17:46:12;15.00;99.90
30702;DHT22;17451;49.908;7.980;2022-09-16T17:48:38;14.90;99.90
30702;DHT22;17451;49.908;7.980;2022-09-16T17:51:04;14.90;99.90
30702;DHT22;17451;49.908;7.980;2022-09-16T17:53:30;14.90;99.90
30702;DHT22;17451;49.908;7.980;2022-09-16T17:56:03;14.80;99.90
30702;DHT22;17451;49.908;7.980;2022-09-16T17:58:30;14.70;99.90
30702;DHT22;17451;49.908;7.980;2022-09-16T18:01:02;14.70;99.90
30702;DHT22;17451;49.908;7.980;2022-09-16T18:03:27;14.60;99.90
30702;DHT22;17451;49.908;7.980;2022-09-16T18:05:53;14.70;99.90
30702;DHT22;17451;49.908;7.980;2022-09-16T18:08:19;14.60;99.90
30702;DHT22;17451;49.908;7.980;2022-09-16T18:10:50;14.70;99.90
30702;DHT22;17451;49.908;7.980;2022-09-16T18:13:16;14.60;99.90
30702;DHT22;17451;49.908;7.980;2022-09-16T18:15:42;14.60;99.90
30702;DHT22;17451;49.908;7.980;2022-09-16T18:18:07;14.60;99.90
30702;DHT22;17451;49.908;7.980;2022-09-16T18:20:34;14.50;99.90
30702;DHT22;17451;49.908;7.980;2022-09-16T18:23:00;14.50;99.90
30702;DHT22;17451;49.908;7.980;2022-09-16T18:25:25;14.50;99.90
30702;DHT22;17451;49.908;7.980;2022-09-16T18:27:51;14.40;99.90
30702;DHT22;17451;49.908;7.980;2022-09-16T18:30:17;14.30;99.90
30702;DHT22;17451;49.908;7.980;2022-09-16T18:32:43;14.30;99.90
30702;DHT22;17451;49.908;7.980;2022-09-16T18:35:08;14.30;99.90
30702;DHT22;17451;49.908;7.980;2022-09-16T18:37:36;14.30;99.90
30702;DHT22;17451;49.908;7.980;2022-09-16T18:40:02;14.40;99.90
30702;DHT22;17451;49.908;7.980;2022-09-16T18:42:28;14.40;99.90
30702;DHT22;17451;49.908;7.980;2022-09-16T18:44:54;14.30;99.90
30702;DHT22;17451;49.908;7.980;2022-09-16T18:47:19;14.30;99.90
30702;DHT22;17451;49.908;7.980;2022-09-16T18:49:46;14.30;99.90
30702;DHT22;17451;49.908;7.980;2022-09-16T18:52:32;14.30;99.90
30702;DHT22;17451;49.908;7.980;2022-09-16T18:54:57;14.20;99.90
30702;DHT22;17451;49.908;7.980;2022-09-16T18:57:24;14.20;99.90
30702;DHT22;17451;49.908;7.980;2022-09-16T18:59:50;14.20;99.90
30702;DHT22;17451;49.908;7.980;2022-09-16T19:02:16;14.10;99.90
30702;DHT22;17451;49.908;7.980;2022-09-16T19:04:41;14.10;99.90
30702;DHT22;17451;49.908;7.980;2022-09-16T19:07:09;14.00;99.90
30702;DHT22;17451;49.908;7.980;2022-09-16T19:09:36;14.00;99.90
30702;DHT22;17451;49.908;7.980;2022-09-16T19:12:05;14.00;99.90
30702;DHT22;17451;49.908;7.980;2022-09-16T19:14:31;14.00;99.90
30702;DHT22;17451;49.908;7.980;2022-09-16T19:16:57;14.00;99.90
30702;DHT22;17451;49.908;7.980;2022-09-16T19:19:23;13.90;99.90
30702;DHT22;17451;49.908;7.980;2022-09-16T19:21:49;13.90;99.90
30702;DHT22;17451;49.908;7.980;2022-09-16T19:24:19;13.80;99.90
30702;DHT22;17451;49.908;7.980;2022-09-16T19:26:45;13.80;99.90
30702;DHT22;17451;49.908;7.980;2022-09-16T19:29:12;13.70;99.90
30702;DHT22;17451;49.908;7.980;2022-09-16T19:31:38;13.60;99.90
30702;DHT22;17451;49.908;7.980;2022-09-16T19:34:04;13.60;99.90
30702;DHT22;17451;49.908;7.980;2022-09-16T19:36:31;13.50;99.90
30702;DHT22;17451;49.908;7.980;2022-09-16T19:38:57;13.40;99.90
30702;DHT22;17451;49.908;7.980;2022-09-16T19:41:27;13.40;99.90
30702;DHT22;17451;49.908;7.980;2022-09-16T19:43:54;13.40;99.90
30702;DHT22;17451;49.908;7.980;2022-09-16T19:46:20;13.30;99.90
30702;DHT22;17451;49.908;7.980;2022-09-16T19:48:47;13.30;99.90
30702;DHT22;17451;49.908;7.980;2022-09-16T19:51:14;13.30;99.90
30702;DHT22;17451;49.908;7.980;2022-09-16T19:53:40;13.20;99.90
30702;DHT22;17451;49.908;7.980;2022-09-16T19:56:07;13.30;99.90
30702;DHT22;17451;49.908;7.980;2022-09-16T19:58:34;13.20;99.90
30702;DHT22;17451;49.908;7.980;2022-09-16T20:01:06;13.20;99.90
30702;DHT22;17451;49.908;7.980;2022-09-16T20:03:33;13.20;99.90
30702;DHT22;17451;49.908;7.980;2022-09-16T20:06:08;13.30;99.90
30702;DHT22;17451;49.908;7.980;2022-09-16T20:08:35;13.20;99.90
30702;DHT22;17451;49.908;7.980;2022-09-16T20:11:02;13.20;99.90
30702;DHT22;17451;49.908;7.980;2022-09-16T20:13:32;13.20;99.90
30702;DHT22;17451;49.908;7.980;2022-09-16T20:16:06;13.20;99.90
30702;DHT22;17451;49.908;7.980;2022-09-16T20:18:33;13.10;99.90
30702;DHT22;17451;49.908;7.980;2022-09-16T20:21:03;13.10;99.90
30702;DHT22;17451;49.908;7.980;2022-09-16T20:23:35;13.10;99.90
30702;DHT22;17451;49.908;7.980;2022-09-16T20:26:07;13.00;99.90
30702;DHT22;17451;49.908;7.980;2022-09-16T20:28:34;13.00;99.90
30702;DHT22;17451;49.908;7.980;2022-09-16T20:31:00;12.80;99.90
30702;DHT22;17451;49.908;7.980;2022-09-16T20:33:32;12.70;99.90
30702;DHT22;17451;49.908;7.980;2022-09-16T20:36:02;12.70;99.90
30702;DHT22;17451;49.908;7.980;2022-09-16T20:38:34;12.70;99.90